createdAt,value
2018-08-25T00:01:20.215Z,3.60
2018-08-25T00:03:48.274Z,4.47
2018-08-25T00:06:16.244Z,4.70
2018-08-25T00:08:44.196Z,4.03
2018-08-25T00:11:12.171Z,4.27
2018-08-25T00:13:40.155Z,6.07
2018-08-25T00:16:08.107Z,5.60
2018-08-25T00:18:36.072Z,4.10
2018-08-25T00:21:04.052Z,6.63
2018-08-25T00:23:32.012Z,4.87
2018-08-25T00:25:59.985Z,5.27
2018-08-25T00:28:27.939Z,5.63
2018-08-25T00:31:01.707Z,3.93
2018-08-25T00:33:29.664Z,7.23
2018-08-25T00:35:57.624Z,4.53
2018-08-25T00:38:25.591Z,3.10
2018-08-25T00:40:53.564Z,3.60
2018-08-25T00:43:21.588Z,2.83
2018-08-25T00:45:49.648Z,4.83
2018-08-25T00:48:17.652Z,4.10
2018-08-25T00:50:45.651Z,5.00
2018-08-25T00:53:13.627Z,5.80
2018-08-25T00:55:41.613Z,2.90
2018-08-25T00:58:09.603Z,2.10
2018-08-25T01:00:37.557Z,3.53
2018-08-25T01:03:09.019Z,5.27
2018-08-25T01:05:36.986Z,3.40
2018-08-25T01:08:05.562Z,2.83
2018-08-25T01:10:33.526Z,3.40
2018-08-25T01:13:01.566Z,4.30
2018-08-25T01:15:29.585Z,3.67
2018-08-25T01:17:57.518Z,9.17
2018-08-25T01:20:25.477Z,4.47
2018-08-25T01:22:53.507Z,9.23
2018-08-25T01:25:21.464Z,3.00
2018-08-25T01:27:49.559Z,8.53
2018-08-25T01:30:17.505Z,8.03
2018-08-25T01:32:45.451Z,4.73
2018-08-25T01:35:13.427Z,6.53
2018-08-25T01:37:41.382Z,3.10
2018-08-25T01:40:09.348Z,3.67
2018-08-25T01:42:37.316Z,3.43
2018-08-25T01:45:05.343Z,6.17
2018-08-25T01:47:33.326Z,4.20
2018-08-25T01:50:01.287Z,5.37
2018-08-25T01:52:29.253Z,4.37
2018-08-25T01:54:57.216Z,4.50
2018-08-25T01:57:25.200Z,3.00
2018-08-25T01:59:53.152Z,5.87
2018-08-25T02:02:21.121Z,3.90
2018-08-25T02:04:49.423Z,3.87
2018-08-25T02:07:17.479Z,2.93
2018-08-25T02:09:45.439Z,4.13
2018-08-25T02:12:13.417Z,3.73
2018-08-25T02:14:41.364Z,8.30
2018-08-25T02:17:09.632Z,7.53
2018-08-25T02:19:37.592Z,4.57
2018-08-25T02:22:05.552Z,2.77
2018-08-25T02:24:33.529Z,2.00
2018-08-25T02:27:01.484Z,7.40
2018-08-25T02:29:29.437Z,3.10
2018-08-25T02:31:57.420Z,3.60
2018-08-25T02:34:29.126Z,3.07
2018-08-25T02:36:57.126Z,5.13
2018-08-25T02:39:25.150Z,4.90
2018-08-25T02:41:53.103Z,6.47
2018-08-25T02:44:21.051Z,3.60
2018-08-25T02:46:49.113Z,6.50
2018-08-25T02:49:17.072Z,6.00
2018-08-25T02:51:45.043Z,8.73
2018-08-25T02:54:13.004Z,6.03
2018-08-25T02:56:40.986Z,6.10
2018-08-25T02:59:08.938Z,7.23
2018-08-25T03:01:36.901Z,4.90
2018-08-25T03:04:04.921Z,4.17
2018-08-25T03:06:32.887Z,9.10
2018-08-25T03:09:00.837Z,8.57
2018-08-25T03:11:28.809Z,8.87
2018-08-25T03:13:56.762Z,4.50
2018-08-25T03:16:24.758Z,4.83
2018-08-25T03:18:53.077Z,5.27
2018-08-25T03:21:22.042Z,4.80
2018-08-25T03:23:49.988Z,4.67
2018-08-25T03:26:17.959Z,5.10
2018-08-25T03:28:45.926Z,5.97
2018-08-25T03:31:13.896Z,7.50
2018-08-25T03:33:41.858Z,7.47
2018-08-25T03:36:09.826Z,6.00
2018-08-25T03:38:37.800Z,6.67
2018-08-25T03:41:06.459Z,12.00
2018-08-25T03:43:34.415Z,9.43
2018-08-25T03:46:02.400Z,10.73
2018-08-25T03:48:30.365Z,6.83
2018-08-25T03:50:58.301Z,8.97
2018-08-25T03:53:26.263Z,5.03
2018-08-25T03:55:54.240Z,5.80
2018-08-25T03:58:22.269Z,7.07
2018-08-25T04:00:50.226Z,5.70
2018-08-25T04:03:18.198Z,7.73
2018-08-25T04:05:46.166Z,6.50
2018-08-25T04:08:14.219Z,8.97
2018-08-25T04:10:42.267Z,8.83
2018-08-25T04:13:10.244Z,9.87
2018-08-25T04:15:38.201Z,8.13
2018-08-25T04:18:12.670Z,10.70
2018-08-25T04:20:40.932Z,5.83
2018-08-25T04:23:08.880Z,23.60
2018-08-25T04:25:36.827Z,13.53
2018-08-25T04:28:04.971Z,14.20
2018-08-25T04:30:32.908Z,11.43
2018-08-25T04:33:00.878Z,11.20
2018-08-25T04:35:28.845Z,7.30
2018-08-25T04:37:56.808Z,12.90
2018-08-25T04:40:24.773Z,7.67
2018-08-25T04:42:52.758Z,9.87
2018-08-25T04:45:20.720Z,11.60
2018-08-25T04:47:48.724Z,7.60
2018-08-25T04:50:16.692Z,6.77
2018-08-25T04:52:44.644Z,7.03
2018-08-25T04:55:12.627Z,11.17
2018-08-25T04:57:40.598Z,10.30
2018-08-25T05:00:08.562Z,7.57
2018-08-25T05:02:36.519Z,4.10
2018-08-25T05:05:04.473Z,11.70
2018-08-25T05:07:32.510Z,7.30
2018-08-25T05:10:00.409Z,8.60
2018-08-25T05:12:28.392Z,8.53
2018-08-25T05:14:56.373Z,7.20
2018-08-25T05:17:24.336Z,7.67
2018-08-25T05:19:52.306Z,7.37
2018-08-25T05:22:20.259Z,8.53
2018-08-25T05:24:48.536Z,6.37
2018-08-25T05:27:16.498Z,12.60
2018-08-25T05:29:44.460Z,9.70
2018-08-25T05:32:12.782Z,14.60
2018-08-25T05:34:40.729Z,8.07
2018-08-25T05:37:08.683Z,11.73
2018-08-25T05:39:36.655Z,9.13
2018-08-25T05:42:04.616Z,13.43
2018-08-25T05:44:32.601Z,17.47
2018-08-25T05:47:00.612Z,12.53
2018-08-25T05:49:28.594Z,8.23
2018-08-25T05:51:56.566Z,12.27
2018-08-25T05:54:24.557Z,10.17
2018-08-25T05:56:53.075Z,9.23
2018-08-25T05:59:21.049Z,10.13
2018-08-25T06:01:49.107Z,8.27
2018-08-25T06:04:17.099Z,10.87
2018-08-25T06:06:45.135Z,10.93
2018-08-25T06:09:13.307Z,15.53
2018-08-25T06:11:42.533Z,13.70
2018-08-25T06:14:10.488Z,20.03
2018-08-25T06:16:38.466Z,21.67
2018-08-25T06:19:06.581Z,20.60
2018-08-25T06:21:34.811Z,17.00
2018-08-25T06:24:02.799Z,21.43
2018-08-25T06:26:30.757Z,18.90
2018-08-25T06:28:58.732Z,17.33
2018-08-25T06:31:26.714Z,16.43
2018-08-25T06:33:54.705Z,19.30
2018-08-25T06:36:22.698Z,20.27
2018-08-25T06:38:50.679Z,18.33
2018-08-25T06:41:18.680Z,19.63
2018-08-25T06:43:46.652Z,24.53
2018-08-25T06:46:14.612Z,22.37
2018-08-25T06:48:42.590Z,16.97
2018-08-25T06:51:10.599Z,20.03
2018-08-25T06:53:38.568Z,17.70
2018-08-25T06:56:06.548Z,16.43
2018-08-25T06:58:34.515Z,19.90
2018-08-25T07:01:02.504Z,19.10
2018-08-25T07:03:30.482Z,17.00
2018-08-25T07:05:58.536Z,20.93
2018-08-25T07:08:26.753Z,18.27
2018-08-25T07:10:54.710Z,24.00
2018-08-25T07:13:22.739Z,23.30
2018-08-25T07:15:50.711Z,20.20
2018-08-25T07:18:18.679Z,21.03
2018-08-25T07:20:46.659Z,24.93
2018-08-25T07:23:14.705Z,20.73
2018-08-25T07:25:42.745Z,25.80
2018-08-25T07:28:10.724Z,25.13
2018-08-25T07:30:38.700Z,27.00
2018-08-25T07:33:06.662Z,26.37
2018-08-25T07:35:34.709Z,25.57
2018-08-25T07:38:02.708Z,24.20
2018-08-25T07:40:30.682Z,24.50
2018-08-25T07:42:58.647Z,26.47
2018-08-25T07:45:26.619Z,23.90
2018-08-25T07:47:54.889Z,30.23
2018-08-25T07:50:22.863Z,25.70
2018-08-25T07:52:50.847Z,28.90
2018-08-25T07:55:18.833Z,28.23
2018-08-25T07:57:47.068Z,29.77
2018-08-25T08:00:15.141Z,25.37
2018-08-25T08:02:43.101Z,28.23
2018-08-25T08:05:11.093Z,26.63
2018-08-25T08:07:39.360Z,28.30
2018-08-25T08:10:07.331Z,33.10
2018-08-25T08:12:35.307Z,30.13
2018-08-25T08:15:03.310Z,30.83
2018-08-25T08:17:31.374Z,30.13
2018-08-25T08:19:59.369Z,29.00
2018-08-25T08:22:27.329Z,34.03
2018-08-25T08:24:55.287Z,29.90
2018-08-25T08:27:23.292Z,32.57
2018-08-25T08:29:51.251Z,32.50
2018-08-25T08:32:19.237Z,24.60
2018-08-25T08:34:47.209Z,27.97
2018-08-25T08:37:15.253Z,21.60
2018-08-25T08:39:43.212Z,22.10
2018-08-25T08:42:11.257Z,24.33
2018-08-25T08:44:39.177Z,19.73
2018-08-25T08:47:07.151Z,19.60
2018-08-25T08:49:46.308Z,22.63
2018-08-25T08:52:03.192Z,21.70
2018-08-25T08:54:31.161Z,19.30
2018-08-25T08:56:59.464Z,20.03
2018-08-25T08:59:27.426Z,18.43
2018-08-25T09:01:55.381Z,17.37
2018-08-25T09:04:23.439Z,19.83
2018-08-25T09:06:51.432Z,17.57
2018-08-25T09:09:19.668Z,15.00
2018-08-25T09:11:47.664Z,17.10
2018-08-25T09:14:15.664Z,20.23
2018-08-25T09:16:43.632Z,15.97
2018-08-25T09:19:11.590Z,16.03
2018-08-25T09:21:39.556Z,16.40
2018-08-25T09:24:07.537Z,14.17
2018-08-25T09:26:42.893Z,17.57
2018-08-25T09:29:10.864Z,16.53
2018-08-25T09:31:38.831Z,13.37
2018-08-25T09:34:06.813Z,14.50
2018-08-25T09:36:34.907Z,12.57
2018-08-25T09:39:03.013Z,8.53
2018-08-25T09:41:31.033Z,11.23
2018-08-25T09:43:59.022Z,8.87
2018-08-25T09:46:27.365Z,17.53
2018-08-25T09:48:55.341Z,13.00
2018-08-25T09:51:23.286Z,13.70
2018-08-25T09:53:51.250Z,10.20
2018-08-25T09:56:19.220Z,11.37
2018-08-25T09:58:47.221Z,9.13
2018-08-25T10:01:20.646Z,8.63
2018-08-25T10:03:48.634Z,10.97
2018-08-25T10:06:16.605Z,11.97
2018-08-25T10:08:44.589Z,9.90
2018-08-25T10:11:12.568Z,6.70
2018-08-25T10:13:40.606Z,10.53
2018-08-25T10:16:08.937Z,11.93
2018-08-25T10:18:36.998Z,11.67
2018-08-25T10:21:04.963Z,11.47
2018-08-25T10:23:33.001Z,12.57
2018-08-25T10:26:00.893Z,8.50
2018-08-25T10:28:28.876Z,7.60
2018-08-25T10:30:56.848Z,14.33
2018-08-25T10:33:24.804Z,9.27
2018-08-25T10:35:52.798Z,10.80
2018-08-25T10:38:20.747Z,9.63
2018-08-25T10:40:48.716Z,9.83
2018-08-25T10:43:16.753Z,7.13
2018-08-25T10:45:44.981Z,8.90
2018-08-25T10:48:13.009Z,11.53
2018-08-25T10:50:40.886Z,11.67
2018-08-25T10:53:09.327Z,8.67
2018-08-25T10:55:37.449Z,12.73
2018-08-25T10:58:05.662Z,14.20
2018-08-25T11:00:33.927Z,11.17
2018-08-25T11:03:01.963Z,10.30
2018-08-25T11:05:30.139Z,11.27
2018-08-25T11:07:58.278Z,10.73
2018-08-25T11:10:26.459Z,12.23
2018-08-25T11:12:58.053Z,8.37
2018-08-25T11:15:26.025Z,13.73
2018-08-25T11:17:53.987Z,9.57
2018-08-25T11:20:22.037Z,15.87
2018-08-25T11:22:49.975Z,13.60
2018-08-25T11:25:18.223Z,14.73
2018-08-25T11:27:46.179Z,8.53
2018-08-25T11:30:14.136Z,8.53
2018-08-25T11:32:42.134Z,8.37
2018-08-25T11:35:10.137Z,9.67
2018-08-25T11:37:38.942Z,5.77
2018-08-25T11:40:06.811Z,7.43
2018-08-25T11:42:34.824Z,8.87
2018-08-25T11:45:02.861Z,6.83
2018-08-25T11:47:31.078Z,6.63
2018-08-25T11:49:59.051Z,6.00
2018-08-25T11:52:27.002Z,5.10
2018-08-25T11:54:54.998Z,9.63
2018-08-25T11:57:22.961Z,6.10
2018-08-25T11:59:51.241Z,5.80
2018-08-25T12:02:19.386Z,6.77
2018-08-25T12:04:47.443Z,5.63
2018-08-25T12:07:15.635Z,8.67
2018-08-25T12:09:43.786Z,6.50
2018-08-25T12:12:11.884Z,8.20
2018-08-25T12:14:43.523Z,8.80
2018-08-25T12:17:11.636Z,5.93
2018-08-25T12:19:39.808Z,7.50
2018-08-25T12:22:07.935Z,4.37
2018-08-25T12:24:36.390Z,3.50
2018-08-25T12:27:05.142Z,6.60
2018-08-25T12:29:33.241Z,8.17
2018-08-25T12:32:01.227Z,5.43
2018-08-25T12:34:29.200Z,3.90
2018-08-25T12:36:57.158Z,3.37
2018-08-25T12:39:25.147Z,7.07
2018-08-25T12:41:53.090Z,7.70
2018-08-25T12:44:21.058Z,8.80
2018-08-25T12:46:49.008Z,11.70
2018-08-25T12:49:17.011Z,5.47
2018-08-25T12:51:45.292Z,6.37
2018-08-25T12:54:13.285Z,6.13
2018-08-25T12:56:41.225Z,5.27
2018-08-25T12:59:09.270Z,7.40
2018-08-25T13:01:37.237Z,9.27
2018-08-25T13:04:05.887Z,11.10
2018-08-25T13:06:33.841Z,6.00
2018-08-25T13:09:01.839Z,10.07
2018-08-25T13:11:29.853Z,6.20
2018-08-25T13:13:58.221Z,10.43
2018-08-25T13:16:26.185Z,8.23
2018-08-25T13:18:54.245Z,8.40
2018-08-25T13:21:22.263Z,5.90
2018-08-25T13:23:50.216Z,6.37
2018-08-25T13:26:18.174Z,4.30
2018-08-25T13:28:46.142Z,5.97
2018-08-25T13:31:14.117Z,5.57
2018-08-25T13:33:42.485Z,8.53
2018-08-25T13:36:10.505Z,3.53
2018-08-25T13:38:38.492Z,5.73
2018-08-25T13:41:06.506Z,7.07
2018-08-25T13:43:34.557Z,5.77
2018-08-25T13:46:02.528Z,6.50
2018-08-25T13:48:30.506Z,6.80
2018-08-25T13:50:58.507Z,4.07
2018-08-25T13:53:26.443Z,6.13
2018-08-25T13:55:55.365Z,18.10
2018-08-25T13:58:23.384Z,6.37
2018-08-25T14:00:51.270Z,6.23
2018-08-25T14:03:19.238Z,6.07
2018-08-25T14:05:47.316Z,7.73
2018-08-25T14:08:15.662Z,5.87
2018-08-25T14:10:43.654Z,7.70
2018-08-25T14:13:11.651Z,3.40
2018-08-25T14:15:39.737Z,7.80
2018-08-25T14:18:07.710Z,5.47
2018-08-25T14:20:35.671Z,6.30
2018-08-25T14:23:03.646Z,7.10
2018-08-25T14:25:31.593Z,6.57
2018-08-25T14:27:59.632Z,5.27
2018-08-25T14:30:27.620Z,4.23
2018-08-25T14:32:55.549Z,4.47
2018-08-25T14:35:23.569Z,6.60
2018-08-25T14:37:51.501Z,6.60
2018-08-25T14:40:20.537Z,6.13
2018-08-25T14:42:48.499Z,10.33
2018-08-25T14:45:16.496Z,5.90
2018-08-25T14:47:44.478Z,3.97
2018-08-25T14:50:12.725Z,6.93
2018-08-25T14:52:40.899Z,9.00
2018-08-25T14:55:09.132Z,9.67
2018-08-25T14:57:37.390Z,5.93
2018-08-25T15:00:05.811Z,4.53
2018-08-25T15:02:34.072Z,5.27
2018-08-25T15:05:02.342Z,5.87
2018-08-25T15:07:30.696Z,5.30
2018-08-25T15:09:58.958Z,5.80
2018-08-25T15:12:26.950Z,2.97
2018-08-25T15:14:55.023Z,6.40
2018-08-25T15:17:23.018Z,3.83
2018-08-25T15:19:50.982Z,4.47
2018-08-25T15:22:18.974Z,3.57
2018-08-25T15:24:46.931Z,6.10
2018-08-25T15:27:14.959Z,3.63
2018-08-25T15:29:42.891Z,3.60
2018-08-25T15:32:10.847Z,4.07
2018-08-25T15:34:39.153Z,8.67
2018-08-25T15:37:07.118Z,5.67
2018-08-25T15:39:35.076Z,3.67
2018-08-25T15:42:03.403Z,3.97
2018-08-25T15:44:31.503Z,6.90
2018-08-25T15:46:59.724Z,4.90
2018-08-25T15:49:28.167Z,5.50
2018-08-25T15:51:56.269Z,6.23
2018-08-25T15:54:24.119Z,4.50
2018-08-25T15:56:52.094Z,3.30
2018-08-25T15:59:20.044Z,2.57
2018-08-25T16:01:48.051Z,3.67
2018-08-25T16:04:16.062Z,2.63
2018-08-25T16:06:44.052Z,1.73
2018-08-25T16:09:12.350Z,3.03
2018-08-25T16:11:40.541Z,4.00
2018-08-25T16:14:08.455Z,2.50
2018-08-25T16:16:36.783Z,3.10
2018-08-25T16:19:04.787Z,1.47
2018-08-25T16:21:32.727Z,3.27
2018-08-25T16:24:00.752Z,5.97
2018-08-25T16:26:28.728Z,6.23
2018-08-25T16:28:56.687Z,21.37
2018-08-25T16:31:24.900Z,3.63
2018-08-25T16:33:52.842Z,3.93
2018-08-25T16:36:20.800Z,4.33
2018-08-25T16:38:48.780Z,3.70
2018-08-25T16:41:16.757Z,4.40
2018-08-25T16:43:44.736Z,6.23
2018-08-25T16:46:12.828Z,4.67
2018-08-25T16:48:44.181Z,2.37
2018-08-25T16:51:12.180Z,2.30
2018-08-25T16:53:40.294Z,2.93
2018-08-25T16:56:08.680Z,3.50
2018-08-25T16:58:36.873Z,2.37
2018-08-25T17:01:04.824Z,2.83
2018-08-25T17:06:06.011Z,2.03
2018-08-25T17:08:33.984Z,2.93
2018-08-25T17:11:01.937Z,4.80
2018-08-25T17:13:29.892Z,4.30
2018-08-25T17:15:57.852Z,5.90
2018-08-25T17:18:25.797Z,3.73
2018-08-25T17:20:53.836Z,3.73
2018-08-25T17:23:21.768Z,2.83
2018-08-25T17:25:49.728Z,2.50
2018-08-25T17:28:18.028Z,2.43
2018-08-25T17:30:46.053Z,6.37
2018-08-25T17:33:14.056Z,2.47
2018-08-25T17:35:42.041Z,2.93
2018-08-25T17:38:10.036Z,2.70
2018-08-25T17:40:37.999Z,1.83
2018-08-25T17:43:06.007Z,2.50
2018-08-25T17:45:33.969Z,2.03
2018-08-25T17:48:01.934Z,2.63
2018-08-25T17:50:29.890Z,2.60
2018-08-25T17:52:57.837Z,3.40
2018-08-25T17:55:25.858Z,2.73
2018-08-25T17:57:53.809Z,2.40
2018-08-25T18:00:21.788Z,2.77
2018-08-25T18:02:49.753Z,1.50
2018-08-25T18:05:17.726Z,7.30
2018-08-25T18:07:45.685Z,2.20
2018-08-25T18:10:13.622Z,1.60
2018-08-25T18:12:42.010Z,2.30
2018-08-25T18:15:09.979Z,2.27
2018-08-25T18:17:37.998Z,2.00
2018-08-25T18:20:05.978Z,2.07
2018-08-25T18:22:33.933Z,2.67
2018-08-25T18:25:01.875Z,2.53
2018-08-25T18:27:29.846Z,2.10
2018-08-25T18:29:57.818Z,3.03
2018-08-25T18:32:25.773Z,3.53
2018-08-25T18:34:53.732Z,4.13
2018-08-25T18:37:21.763Z,2.60
2018-08-25T18:39:49.818Z,6.03
2018-08-25T18:42:17.985Z,2.10
2018-08-25T18:44:45.978Z,3.60
2018-08-25T18:47:13.960Z,2.10
2018-08-25T18:49:41.913Z,2.33
2018-08-25T18:52:10.073Z,3.17
2018-08-25T18:54:38.242Z,1.80
2018-08-25T18:57:06.329Z,2.10
2018-08-25T18:59:34.426Z,2.77
2018-08-25T19:02:02.504Z,2.10
2018-08-25T19:04:30.408Z,1.90
2018-08-25T19:06:58.355Z,2.70
2018-08-25T19:09:26.322Z,2.17
2018-08-25T19:11:54.271Z,3.03
2018-08-25T19:14:22.302Z,2.67
2018-08-25T19:16:50.226Z,4.83
2018-08-25T19:19:18.255Z,2.03
2018-08-25T19:21:46.491Z,4.23
2018-08-25T19:24:14.516Z,2.03
2018-08-25T19:26:42.398Z,3.37
2018-08-25T19:29:10.362Z,4.37
2018-08-25T19:31:38.298Z,2.20
2018-08-25T19:34:06.291Z,1.87
2018-08-25T19:36:34.266Z,4.73
2018-08-25T19:39:02.208Z,3.40
2018-08-25T19:41:30.169Z,2.00
2018-08-25T19:43:58.161Z,1.93
2018-08-25T19:46:26.132Z,2.67
2018-08-25T19:48:54.072Z,4.13
2018-08-25T19:51:25.732Z,2.43
2018-08-25T19:53:53.704Z,2.33
2018-08-25T19:56:21.670Z,2.00
2018-08-25T19:58:49.678Z,2.13
2018-08-25T20:01:17.652Z,1.63
2018-08-25T20:03:46.444Z,3.03
2018-08-25T20:06:14.416Z,2.33
2018-08-25T20:08:42.370Z,2.20
2018-08-25T20:11:10.333Z,1.43
2018-08-25T20:13:38.385Z,1.70
2018-08-25T20:16:06.277Z,3.13
2018-08-25T20:18:34.253Z,3.37
2018-08-25T20:21:02.298Z,6.50
2018-08-25T20:23:30.436Z,3.30
2018-08-25T20:25:58.710Z,2.90
2018-08-25T20:28:26.944Z,4.80
2018-08-25T20:30:55.350Z,2.10
2018-08-25T20:33:23.307Z,4.30
2018-08-25T20:35:51.298Z,2.17
2018-08-25T20:38:19.241Z,2.83
2018-08-25T20:40:47.160Z,2.47
2018-08-25T20:43:15.124Z,2.20
2018-08-25T20:45:43.076Z,2.23
2018-08-25T20:48:11.069Z,3.13
2018-08-25T20:50:39.016Z,2.30
2018-08-25T20:53:06.970Z,2.90
2018-08-25T20:55:34.953Z,2.43
2018-08-25T20:58:02.893Z,1.50
2018-08-25T21:00:30.860Z,2.87
2018-08-25T21:02:58.832Z,2.33
2018-08-25T21:05:26.801Z,2.00
2018-08-25T21:07:54.754Z,2.30
2018-08-25T21:10:22.805Z,2.23
2018-08-25T21:12:50.757Z,2.90
2018-08-25T21:15:18.712Z,4.97
2018-08-25T21:17:46.661Z,2.57
2018-08-25T21:20:14.628Z,4.73
2018-08-25T21:22:42.959Z,2.43
2018-08-25T21:25:10.919Z,1.67
2018-08-25T21:27:38.887Z,2.30
2018-08-25T21:30:07.991Z,2.40
2018-08-25T21:32:36.149Z,3.07
2018-08-25T21:35:04.109Z,1.83
2018-08-25T21:37:32.069Z,1.57
2018-08-25T21:40:00.045Z,2.13
2018-08-25T21:42:27.990Z,2.67
2018-08-25T21:44:55.951Z,2.20
2018-08-25T21:47:23.905Z,1.87
2018-08-25T21:49:52.050Z,2.60
2018-08-25T21:52:19.996Z,3.00
2018-08-25T21:54:47.938Z,7.60
2018-08-25T21:57:15.932Z,1.90
2018-08-25T21:59:43.870Z,3.00
2018-08-25T22:02:16.098Z,3.07
2018-08-25T22:04:44.115Z,2.07
2018-08-25T22:07:12.092Z,2.23
2018-08-25T22:09:40.140Z,1.80
2018-08-25T22:12:08.105Z,2.77
2018-08-25T22:14:36.069Z,2.43
2018-08-25T22:17:04.021Z,3.77
2018-08-25T22:19:31.988Z,1.63
2018-08-25T22:21:59.956Z,2.33
2018-08-25T22:24:27.916Z,1.77
2018-08-25T22:26:55.856Z,4.80
2018-08-25T22:29:23.813Z,2.23
2018-08-25T22:31:51.754Z,2.10
2018-08-25T22:34:19.683Z,1.50
2018-08-25T22:36:47.741Z,2.27
2018-08-25T22:41:49.178Z,1.67
2018-08-25T22:44:17.052Z,1.90
2018-08-25T22:46:44.994Z,2.80
2018-08-25T22:49:13.268Z,1.07
2018-08-25T22:51:41.317Z,2.60
2018-08-25T22:54:09.296Z,1.73
2018-08-25T22:56:37.262Z,1.13
2018-08-25T22:59:05.538Z,1.37
2018-08-25T23:01:34.508Z,2.40
2018-08-25T23:04:02.619Z,2.53
2018-08-25T23:06:30.606Z,2.47
2018-08-25T23:08:58.665Z,2.57
2018-08-25T23:11:26.724Z,1.20
2018-08-25T23:13:54.797Z,4.57
2018-08-25T23:16:22.746Z,2.03
2018-08-25T23:18:50.932Z,1.20
2018-08-25T23:21:19.012Z,2.77
2018-08-25T23:23:46.989Z,1.40
2018-08-25T23:26:14.943Z,1.60
2018-08-25T23:28:43.028Z,1.53
2018-08-25T23:31:11.291Z,2.03
2018-08-25T23:33:39.379Z,3.70
2018-08-25T23:36:07.332Z,1.30
2018-08-25T23:38:35.313Z,1.40
2018-08-25T23:41:03.601Z,3.47
2018-08-25T23:43:31.553Z,1.90
2018-08-25T23:45:59.568Z,1.33
2018-08-25T23:48:27.527Z,2.80
2018-08-25T23:50:55.482Z,1.30
2018-08-25T23:53:23.436Z,2.07
2018-08-25T23:55:51.410Z,2.40
2018-08-25T23:58:19.342Z,6.63
